Time,TemperatureF,DewpointF,PressureIn,WindDirection,WindDirectionDegrees,WindSpeedMPH,WindSpeedGustMPH,Humidity,HourlyPrecipIn,Conditions,Clouds,dailyrainin,SolarRadiationWatts/m^2,SoftwareType,DateUTC
2015-07-06 00:10:00,65.6,62.9,30.08,South,177,3.0,3.0,91,0.00,,,0.00,0,Wunderground v.1.15,2015-07-06 04:10:00,
2015-07-06 00:20:00,65.8,63.1,30.08,South,177,2.0,2.0,91,0.00,,,0.00,0,Wunderground v.1.15,2015-07-06 04:20:00,
2015-07-06 00:30:00,65.8,62.8,30.09,South,178,0.0,0.0,90,0.00,,,0.00,0,Wunderground v.1.15,2015-07-06 04:30:00,
2015-07-06 00:40:00,65.7,62.7,30.08,South,184,2.0,2.0,90,0.00,,,0.00,0,Wunderground v.1.15,2015-07-06 04:40:00,
2015-07-06 00:50:00,65.7,62.4,30.08,South,182,0.0,0.0,89,0.00,,,0.00,0,Wunderground v.1.15,2015-07-06 04:50:00,
2015-07-06 01:00:00,65.5,62.2,30.08,South,176,0.0,0.0,89,0.00,,,0.00,0,Wunderground v.1.15,2015-07-06 05:00:00,
2015-07-06 01:10:00,65.2,61.9,30.08,SSE,165,0.0,0.0,89,0.00,,,0.00,0,Wunderground v.1.15,2015-07-06 05:10:00,
2015-07-06 01:20:00,65.0,61.7,30.08,SSE,166,0.0,0.0,89,0.00,,,0.00,0,Wunderground v.1.15,2015-07-06 05:20:00,
2015-07-06 01:40:00,64.4,61.4,30.08,SSE,166,0.0,0.0,90,0.00,,,0.00,0,Wunderground v.1.15,2015-07-06 05:40:00,
2015-07-06 01:50:00,64.1,61.4,30.08,SSE,165,0.0,0.0,91,0.00,,,0.00,0,Wunderground v.1.15,2015-07-06 05:50:00,
2015-07-06 02:00:00,63.7,61.0,30.08,SSE,166,0.0,0.0,91,0.00,,,0.00,0,Wunderground v.1.15,2015-07-06 06:00:00,
2015-07-06 02:10:00,63.4,61.0,30.08,SSE,166,0.0,0.0,92,0.00,,,0.00,0,Wunderground v.1.15,2015-07-06 06:10:00,
2015-07-06 02:20:00,63.1,60.7,30.08,SSE,165,0.0,0.0,92,0.00,,,0.00,0,Wunderground v.1.15,2015-07-06 06:20:00,
2015-07-06 02:30:00,62.9,60.5,30.08,SSE,166,0.0,0.0,92,0.00,,,0.00,0,Wunderground v.1.15,2015-07-06 06:30:00,
2015-07-06 02:40:00,62.7,60.6,30.08,SSE,166,0.0,0.0,93,0.00,,,0.00,0,Wunderground v.1.15,2015-07-06 06:40:00,
2015-07-06 02:50:00,62.6,60.5,30.08,SSE,166,0.0,0.0,93,0.00,,,0.00,0,Wunderground v.1.15,2015-07-06 06:50:00,
2015-07-06 03:00:00,62.5,60.7,30.08,SSE,165,0.0,0.0,94,0.00,,,0.00,0,Wunderground v.1.15,2015-07-06 07:00:00,
2015-07-06 03:10:00,62.5,60.7,30.08,SSE,166,0.0,0.0,94,0.00,,,0.00,0,Wunderground v.1.15,2015-07-06 07:10:00,
2015-07-06 03:20:00,62.5,60.7,30.08,SSE,166,0.0,0.0,94,0.00,,,0.00,0,Wunderground v.1.15,2015-07-06 07:20:00,
2015-07-06 03:30:00,62.5,60.7,30.08,SSE,166,0.0,0.0,94,0.00,,,0.00,0,Wunderground v.1.15,2015-07-06 07:30:00,
2015-07-06 03:40:00,62.6,61.1,30.08,SSE,166,0.0,0.0,95,0.00,,,0.00,0,Wunderground v.1.15,2015-07-06 07:40:00,
2015-07-06 03:50:00,62.6,61.1,30.08,SSE,166,0.0,0.0,95,0.00,,,0.00,0,Wunderground v.1.15,2015-07-06 07:50:00,
2015-07-06 04:00:00,62.5,60.7,30.07,SSE,165,0.0,0.0,94,0.00,,,0.00,0,Wunderground v.1.15,2015-07-06 08:00:00,
2015-07-06 04:10:00,62.3,60.6,30.07,SSE,166,0.0,0.0,94,0.00,,,0.00,0,Wunderground v.1.15,2015-07-06 08:10:00,
2015-07-06 04:20:00,62.3,60.8,30.07,SSE,166,0.0,0.0,95,0.00,,,0.00,0,Wunderground v.1.15,2015-07-06 08:20:00,
2015-07-06 04:30:00,62.3,60.8,30.07,SSE,167,1.0,2.0,95,0.00,,,0.00,0,Wunderground v.1.15,2015-07-06 08:30:00,
2015-07-06 04:40:00,62.4,60.9,30.06,SSE,167,1.0,1.0,95,0.00,,,0.00,0,Wunderground v.1.15,2015-07-06 08:40:00,
2015-07-06 04:50:00,62.4,60.9,30.06,SSE,167,0.0,0.0,95,0.00,,,0.00,0,Wunderground v.1.15,2015-07-06 08:50:00,
2015-07-06 05:00:00,62.3,60.8,30.06,SSE,167,0.0,0.0,95,0.00,,,0.00,0,Wunderground v.1.15,2015-07-06 09:00:00,
2015-07-06 05:10:00,62.3,60.8,30.07,South,190,1.0,3.0,95,0.00,,,0.00,0,Wunderground v.1.15,2015-07-06 09:10:00,
2015-07-06 05:20:00,62.3,60.8,30.07,South,190,0.0,0.0,95,0.00,,,0.00,0,Wunderground v.1.15,2015-07-06 09:20:00,
2015-07-06 05:30:00,62.1,60.7,30.07,South,190,0.0,0.0,95,0.00,,,0.00,0,Wunderground v.1.15,2015-07-06 09:30:00,
2015-07-06 05:40:00,61.9,60.2,30.07,South,190,0.0,0.0,94,0.00,,,0.00,0,Wunderground v.1.15,2015-07-06 09:40:00,
2015-07-06 05:50:00,61.6,59.9,30.07,South,190,0.0,0.0,94,0.00,,,0.00,7,Wunderground v.1.15,2015-07-06 09:50:00,
2015-07-06 06:00:00,61.4,59.7,30.07,South,190,0.0,0.0,94,0.00,,,0.00,14,Wunderground v.1.15,2015-07-06 10:00:00,
2015-07-06 06:10:00,61.3,59.6,30.08,South,190,0.0,0.0,94,0.00,,,0.00,21,Wunderground v.1.15,2015-07-06 10:10:00,
2015-07-06 06:20:00,61.3,59.9,30.08,South,190,0.0,0.0,95,0.00,,,0.00,28,Wunderground v.1.15,2015-07-06 10:20:00,
2015-07-06 06:30:00,61.5,60.1,30.08,SE,128,0.0,0.0,95,0.00,,,0.00,39,Wunderground v.1.15,2015-07-06 10:30:00,
2015-07-06 06:40:00,61.6,60.4,30.08,SE,138,0.0,0.0,96,0.00,,,0.00,54,Wunderground v.1.15,2015-07-06 10:40:00,
2015-07-06 06:50:00,62.0,60.8,30.08,South,169,0.0,0.0,96,0.00,,,0.00,74,Wunderground v.1.15,2015-07-06 10:50:00,
2015-07-06 07:00:00,62.3,61.1,30.08,SSE,163,0.0,0.0,96,0.00,,,0.00,98,Wunderground v.1.15,2015-07-06 11:00:00,
2015-07-06 07:10:00,63.0,61.8,30.08,SSE,148,1.0,2.0,96,0.00,,,0.00,121,Wunderground v.1.15,2015-07-06 11:10:00,
2015-07-06 07:20:00,63.6,62.4,30.08,SSE,165,1.0,1.0,96,0.00,,,0.00,151,Wunderground v.1.15,2015-07-06 11:20:00,
2015-07-06 07:30:00,64.3,62.8,30.08,SE,141,0.0,0.0,95,0.00,,,0.00,181,Wunderground v.1.15,2015-07-06 11:30:00,
2015-07-06 07:40:00,65.0,63.5,30.08,SSE,165,0.0,0.0,95,0.00,,,0.00,221,Wunderground v.1.15,2015-07-06 11:40:00,
2015-07-06 07:50:00,65.8,63.7,30.08,SE,143,2.0,2.0,93,0.00,,,0.00,251,Wunderground v.1.15,2015-07-06 11:50:00,
2015-07-06 08:00:00,66.6,64.2,30.08,SSE,163,0.0,0.0,92,0.00,,,0.00,281,Wunderground v.1.15,2015-07-06 12:00:00,
2015-07-06 08:10:00,67.5,64.8,30.08,SSE,165,0.0,0.0,91,0.00,,,0.00,320,Wunderground v.1.15,2015-07-06 12:10:00,
2015-07-06 08:20:00,68.5,65.4,30.08,SSE,162,1.0,1.0,90,0.00,,,0.00,350,Wunderground v.1.15,2015-07-06 12:20:00,
2015-07-06 08:30:00,69.6,65.9,30.08,South,174,0.0,0.0,88,0.00,,,0.00,378,Wunderground v.1.15,2015-07-06 12:30:00,
2015-07-06 08:40:00,70.7,66.6,30.08,SSW,203,0.0,3.0,87,0.00,,,0.00,408,Wunderground v.1.15,2015-07-06 12:40:00,
2015-07-06 08:50:00,71.5,66.4,30.08,South,174,2.0,2.0,84,0.00,,,0.00,441,Wunderground v.1.15,2015-07-06 12:50:00,
2015-07-06 09:00:00,72.2,67.1,30.08,SE,135,0.0,0.0,84,0.00,,,0.00,462,Wunderground v.1.15,2015-07-06 13:00:00,
2015-07-06 09:10:00,73.2,67.7,30.08,SE,134,0.0,0.0,83,0.00,,,0.00,487,Wunderground v.1.15,2015-07-06 13:10:00,
2015-07-06 09:20:00,74.4,68.2,30.07,SSE,160,1.0,1.0,81,0.00,,,0.00,506,Wunderground v.1.15,2015-07-06 13:20:00,
2015-07-06 09:30:00,75.3,67.6,30.07,SSE,165,2.0,2.0,77,0.00,,,0.00,519,Wunderground v.1.15,2015-07-06 13:30:00,
2015-07-06 09:40:00,76.0,67.1,30.07,East,92,0.0,0.0,74,0.00,,,0.00,548,Wunderground v.1.15,2015-07-06 13:40:00,
2015-07-06 09:50:00,76.4,67.9,30.06,ESE,118,1.0,1.0,75,0.00,,,0.00,578,Wunderground v.1.15,2015-07-06 13:50:00,
2015-07-06 10:00:00,76.9,67.2,30.06,SE,137,2.0,2.0,72,0.00,,,0.00,538,Wunderground v.1.15,2015-07-06 14:00:00,
2015-07-06 10:10:00,77.4,67.7,30.06,South,188,3.0,6.0,72,0.00,,,0.00,563,Wunderground v.1.15,2015-07-06 14:10:00,
2015-07-06 10:20:00,77.3,67.6,30.06,SE,138,3.0,3.0,72,0.00,,,0.00,415,Wunderground v.1.15,2015-07-06 14:20:00,
2015-07-06 10:30:00,77.5,68.2,30.06,SE,140,2.0,2.0,73,0.00,,,0.00,480,Wunderground v.1.15,2015-07-06 14:30:00,
2015-07-06 10:40:00,77.9,68.1,30.06,ESE,118,2.0,3.0,72,0.00,,,0.00,534,Wunderground v.1.15,2015-07-06 14:40:00,
2015-07-06 10:50:00,78.4,68.2,30.07,East,94,0.0,0.0,71,0.00,,,0.00,608,Wunderground v.1.15,2015-07-06 14:50:00,
2015-07-06 11:00:00,79.2,69.8,30.07,East,101,2.0,2.0,73,0.00,,,0.00,717,Wunderground v.1.15,2015-07-06 15:00:00,
2015-07-06 11:10:00,79.9,69.2,30.07,East,98,0.0,0.0,70,0.00,,,0.00,761,Wunderground v.1.15,2015-07-06 15:10:00,
2015-07-06 11:20:00,80.8,69.7,30.08,East,94,0.0,0.0,69,0.00,,,0.00,680,Wunderground v.1.15,2015-07-06 15:20:00,
2015-07-06 11:30:00,80.9,69.8,30.08,SE,136,0.0,0.0,69,0.00,,,0.00,336,Wunderground v.1.15,2015-07-06 15:30:00,
2015-07-06 11:40:00,81.1,70.0,30.08,ESE,120,0.0,0.0,69,0.00,,,0.00,517,Wunderground v.1.15,2015-07-06 15:40:00,
2015-07-06 11:50:00,81.5,70.3,30.08,NE,36,0.0,0.0,69,0.00,,,0.00,462,Wunderground v.1.15,2015-07-06 15:50:00,
2015-07-06 12:00:00,81.2,69.2,30.08,ENE,69,1.0,1.0,67,0.00,,,0.00,872,Wunderground v.1.15,2015-07-06 16:00:00,
2015-07-06 12:10:00,81.3,69.7,30.08,NNW,330,0.0,0.0,68,0.00,,,0.00,914,Wunderground v.1.15,2015-07-06 16:10:00,
2015-07-06 12:20:00,82.1,70.1,30.08,NE,51,0.0,0.0,67,0.00,,,0.00,889,Wunderground v.1.15,2015-07-06 16:20:00,
2015-07-06 12:40:00,83.5,71.8,30.06,SE,145,3.0,3.0,68,0.00,,,0.00,900,Wunderground v.1.15,2015-07-06 16:40:00,
2015-07-06 12:50:00,83.9,70.9,30.05,SE,131,2.0,2.0,65,0.00,,,0.00,911,Wunderground v.1.15,2015-07-06 16:50:00,
2015-07-06 13:00:00,84.5,73.2,30.04,SE,142,3.0,4.0,69,0.00,,,0.00,914,Wunderground v.1.15,2015-07-06 17:00:00,
2015-07-06 13:10:00,84.7,72.1,30.04,ENE,60,2.0,7.0,66,0.00,,,0.00,914,Wunderground v.1.15,2015-07-06 17:10:00,
2015-07-06 13:20:00,84.1,73.3,30.04,East,92,4.0,4.0,70,0.00,,,0.00,925,Wunderground v.1.15,2015-07-06 17:20:00,
2015-07-06 13:30:00,84.1,71.5,30.03,SE,144,4.0,7.0,66,0.00,,,0.00,937,Wunderground v.1.15,2015-07-06 17:30:00,
2015-07-06 13:40:00,85.0,73.3,30.03,ESE,119,5.0,5.0,68,0.00,,,0.00,800,Wunderground v.1.15,2015-07-06 17:40:00,
2015-07-06 13:50:00,85.2,73.4,30.03,SSE,147,5.0,12.0,68,0.00,,,0.00,810,Wunderground v.1.15,2015-07-06 17:50:00,
2015-07-06 14:00:00,85.1,73.3,30.02,SE,126,5.0,7.0,68,0.00,,,0.00,896,Wunderground v.1.15,2015-07-06 18:00:00,
2015-07-06 14:10:00,84.1,72.8,30.01,SE,142,7.0,10.0,69,0.00,,,0.00,896,Wunderground v.1.15,2015-07-06 18:10:00,
2015-07-06 14:20:00,84.1,72.4,30.00,SSE,147,7.0,7.0,68,0.00,,,0.00,904,Wunderground v.1.15,2015-07-06 18:20:00,
2015-07-06 14:30:00,84.8,73.5,30.00,ESE,121,6.0,10.0,69,0.00,,,0.00,881,Wunderground v.1.15,2015-07-06 18:30:00,
2015-07-06 14:40:00,85.3,74.0,29.99,SSE,159,7.0,8.0,69,0.00,,,0.00,919,Wunderground v.1.15,2015-07-06 18:40:00,
2015-07-06 14:50:00,85.5,73.7,29.99,South,176,8.0,8.0,68,0.00,,,0.00,979,Wunderground v.1.15,2015-07-06 18:50:00,
2015-07-06 15:00:00,85.2,73.0,29.99,SE,126,9.0,9.0,67,0.00,,,0.00,469,Wunderground v.1.15,2015-07-06 19:00:00,
2015-07-06 15:10:00,84.3,73.4,29.99,SSE,159,8.0,11.0,70,0.00,,,0.00,302,Wunderground v.1.15,2015-07-06 19:10:00,
2015-07-06 15:20:00,83.3,72.9,29.99,SE,126,9.0,9.0,71,0.00,,,0.00,520,Wunderground v.1.15,2015-07-06 19:20:00,
2015-07-06 15:30:00,83.6,73.2,29.99,South,171,7.0,12.0,71,0.00,,,0.00,807,Wunderground v.1.15,2015-07-06 19:30:00,
2015-07-06 15:40:00,84.0,73.6,29.99,SSE,149,7.0,7.0,71,0.00,,,0.00,909,Wunderground v.1.15,2015-07-06 19:40:00,
2015-07-06 15:50:00,84.8,73.9,29.99,SE,134,5.0,9.0,70,0.00,,,0.00,865,Wunderground v.1.15,2015-07-06 19:50:00,
2015-07-06 16:00:00,84.9,73.2,29.99,SE,128,7.0,8.0,68,0.00,,,0.00,206,Wunderground v.1.15,2015-07-06 20:00:00,
2015-07-06 16:10:00,84.5,73.6,29.98,South,169,6.0,6.0,70,0.00,,,0.00,475,Wunderground v.1.15,2015-07-06 20:10:00,
2015-07-06 16:20:00,84.5,73.2,29.98,ESE,121,7.0,8.0,69,0.00,,,0.00,652,Wunderground v.1.15,2015-07-06 20:20:00,
2015-07-06 16:30:00,84.9,73.6,29.97,SE,129,8.0,11.0,69,0.00,,,0.00,687,Wunderground v.1.15,2015-07-06 20:30:00,
2015-07-06 16:40:00,85.1,73.3,29.97,South,188,8.0,8.0,68,0.00,,,0.00,698,Wunderground v.1.15,2015-07-06 20:40:00,
2015-07-06 16:50:00,85.0,72.8,29.97,SSE,161,7.0,7.0,67,0.00,,,0.00,522,Wunderground v.1.15,2015-07-06 20:50:00,
2015-07-06 17:00:00,84.8,73.1,29.97,South,182,6.0,9.0,68,0.00,,,0.00,642,Wunderground v.1.15,2015-07-06 21:00:00,
2015-07-06 17:10:00,85.1,73.8,29.97,South,171,6.0,6.0,69,0.00,,,0.00,584,Wunderground v.1.15,2015-07-06 21:10:00,
2015-07-06 17:20:00,85.1,72.9,29.97,SE,134,7.0,9.0,67,0.00,,,0.00,536,Wunderground v.1.15,2015-07-06 21:20:00,
2015-07-06 17:30:00,84.9,73.6,29.97,South,171,7.0,9.0,69,0.00,,,0.00,513,Wunderground v.1.15,2015-07-06 21:30:00,
2015-07-06 17:40:00,84.9,73.2,29.96,SSE,165,7.0,7.0,68,0.00,,,0.00,534,Wunderground v.1.15,2015-07-06 21:40:00,
2015-07-06 17:50:00,85.0,73.7,29.96,SE,137,6.0,11.0,69,0.00,,,0.00,492,Wunderground v.1.15,2015-07-06 21:50:00,
2015-07-06 18:00:00,84.8,73.9,29.95,ESE,120,6.0,6.0,70,0.00,,,0.00,406,Wunderground v.1.15,2015-07-06 22:00:00,
2015-07-06 18:10:00,84.5,73.2,29.95,SSE,165,8.0,8.0,69,0.00,,,0.00,420,Wunderground v.1.15,2015-07-06 22:10:00,
2015-07-06 18:20:00,84.2,73.3,29.94,SSE,162,6.0,7.0,70,0.00,,,0.00,251,Wunderground v.1.15,2015-07-06 22:20:00,
2015-07-06 18:30:00,84.0,73.6,29.94,SSE,154,5.0,5.0,71,0.00,,,0.00,338,Wunderground v.1.15,2015-07-06 22:30:00,
2015-07-06 18:40:00,84.2,73.8,29.94,ESE,114,4.0,4.0,71,0.00,,,0.00,306,Wunderground v.1.15,2015-07-06 22:40:00,
2015-07-06 18:50:00,84.2,72.9,29.94,SSE,167,5.0,5.0,69,0.00,,,0.00,290,Wunderground v.1.15,2015-07-06 22:50:00,
2015-07-06 19:00:00,84.0,72.7,29.94,SSE,151,6.0,6.0,69,0.00,,,0.00,257,Wunderground v.1.15,2015-07-06 23:00:00,
2015-07-06 19:10:00,83.9,72.2,29.94,SSE,164,4.0,8.0,68,0.00,,,0.00,221,Wunderground v.1.15,2015-07-06 23:10:00,
2015-07-06 19:20:00,83.5,72.3,29.94,South,171,8.0,8.0,69,0.00,,,0.00,188,Wunderground v.1.15,2015-07-06 23:20:00,
2015-07-06 19:30:00,83.2,71.5,29.94,South,172,5.0,5.0,68,0.00,,,0.00,146,Wunderground v.1.15,2015-07-06 23:30:00,
2015-07-06 19:40:00,82.8,71.6,29.94,South,182,5.0,5.0,69,0.00,,,0.00,107,Wunderground v.1.15,2015-07-06 23:40:00,
2015-07-06 19:50:00,82.4,72.0,29.94,South,171,3.0,6.0,71,0.00,,,0.00,35,Wunderground v.1.15,2015-07-06 23:50:00,
2015-07-06 20:00:00,81.8,71.5,29.94,SSE,164,4.0,4.0,71,0.00,,,0.00,16,Wunderground v.1.15,2015-07-07 00:00:00,
2015-07-06 20:10:00,81.2,71.7,29.94,SSE,159,1.0,1.0,73,0.00,,,0.00,12,Wunderground v.1.15,2015-07-07 00:10:00,
2015-07-06 20:20:00,80.8,71.7,29.94,SSE,165,1.0,1.0,74,0.00,,,0.00,9,Wunderground v.1.15,2015-07-07 00:20:00,
2015-07-06 20:30:00,80.1,71.8,29.94,South,172,1.0,1.0,76,0.00,,,0.00,7,Wunderground v.1.15,2015-07-07 00:30:00,
2015-07-06 20:40:00,79.4,71.6,29.94,SSE,165,1.0,1.0,77,0.00,,,0.00,5,Wunderground v.1.15,2015-07-07 00:40:00,
2015-07-06 20:50:00,78.8,71.4,29.94,South,169,1.0,1.0,78,0.00,,,0.00,0,Wunderground v.1.15,2015-07-07 00:50:00,
2015-07-06 21:00:00,78.3,71.2,29.94,South,185,0.0,0.0,79,0.00,,,0.00,0,Wunderground v.1.15,2015-07-07 01:00:00,
2015-07-06 21:10:00,77.8,70.8,29.94,South,176,1.0,3.0,79,0.00,,,0.00,0,Wunderground v.1.15,2015-07-07 01:10:00,
2015-07-06 21:20:00,77.4,70.7,29.94,South,189,1.0,1.0,80,0.00,,,0.00,0,Wunderground v.1.15,2015-07-07 01:20:00,
2015-07-06 21:30:00,77.2,70.5,29.94,South,173,2.0,2.0,80,0.00,,,0.00,0,Wunderground v.1.15,2015-07-07 01:30:00,
2015-07-06 21:40:00,76.8,70.2,29.95,South,173,0.0,0.0,80,0.00,,,0.00,0,Wunderground v.1.15,2015-07-07 01:40:00,
2015-07-06 21:50:00,76.5,70.2,29.95,South,171,0.0,0.0,81,0.00,,,0.00,0,Wunderground v.1.15,2015-07-07 01:50:00,
2015-07-06 22:00:00,76.1,69.8,29.95,South,176,2.0,3.0,81,0.00,,,0.00,0,Wunderground v.1.15,2015-07-07 02:00:00,
2015-07-06 22:10:00,75.9,70.0,29.94,South,173,1.0,1.0,82,0.00,,,0.00,0,Wunderground v.1.15,2015-07-07 02:10:00,
2015-07-06 22:20:00,75.7,69.8,29.95,South,173,0.0,0.0,82,0.00,,,0.00,0,Wunderground v.1.15,2015-07-07 02:20:00,
2015-07-06 22:30:00,75.5,70.0,29.94,SSE,167,2.0,2.0,83,0.00,,,0.00,0,Wunderground v.1.15,2015-07-07 02:30:00,
2015-07-06 22:40:00,75.3,69.8,29.94,South,183,2.0,3.0,83,0.00,,,0.00,0,Wunderground v.1.15,2015-07-07 02:40:00,
2015-07-06 22:50:00,75.1,69.6,29.94,SSE,160,2.0,2.0,83,0.00,,,0.00,0,Wunderground v.1.15,2015-07-07 02:50:00,
2015-07-06 23:00:00,75.0,69.5,29.94,South,169,2.0,2.0,83,0.00,,,0.00,0,Wunderground v.1.15,2015-07-07 03:00:00,
2015-07-06 23:10:00,74.8,69.6,29.94,SSE,156,0.0,0.0,84,0.00,,,0.00,0,Wunderground v.1.15,2015-07-07 03:10:00,